Flight Track Log - Related Links

Times and Time Zones

All times are in EST time to prevent confusion due to time zone crossing. See the CCA140 flight status page for this flight to view local times or setup timezone preferences in your user account.

Time Position Orientation Groundspeed Altitude Reporting Facility
EST Latitude Longitude Course Direction KTS MPH feet Rate Location/Type
Sun 11:14:00 PM 37.1991 126.2014 216° Southwest  Level Estimated
Sun 11:15:00 PM 37.1315 126.1394 216° Southwest  Level Estimated
Sun 11:16:00 PM 37.0639 126.0775 216° Southwest  Level Estimated
Sun 11:17:00 PM 36.9963 126.0157 216° Southwest  Level Estimated
Sun 11:18:00 PM 36.9286 125.9540 216° Southwest  Level Estimated
Sun 11:19:00 PM 36.8609 125.8925 216° Southwest  Level Estimated
Sun 11:20:00 PM 36.7931 125.8310 216° Southwest  Level Estimated
Sun 11:21:00 PM 36.7253 125.7697 216° Southwest  Level Estimated
Sun 11:22:00 PM 36.6576 125.7084 216° Southwest  Level Estimated
Sun 11:23:00 PM 36.5897 125.6473 216° Southwest  Level Estimated
Sun 11:24:00 PM 36.5219 125.5863 216° Southwest  Level Estimated
Sun 11:25:00 PM 36.4540 125.5253 216° Southwest  Level Estimated
Sun 11:26:00 PM 36.3860 125.4645 216° Southwest  Level Estimated
Sun 11:27:00 PM 36.3181 125.4038 216° Southwest  Level Estimated
Sun 11:28:00 PM 36.2501 125.3432 216° Southwest  Level Estimated
Sun 11:29:00 PM 36.1821 125.2827 216° Southwest  Level Estimated
Sun 11:30:00 PM 36.1140 125.2224 216° Southwest  Level Estimated
Sun 11:31:00 PM 36.0459 125.1621 216° Southwest  Level Estimated
Sun 11:32:00 PM 35.9778 125.1019 216° Southwest  Level Estimated
Sun 11:33:00 PM 35.9097 125.0418 216° Southwest  Level Estimated
Sun 11:34:00 PM 35.8415 124.9818 216° Southwest  Level Estimated
Sun 11:35:00 PM 35.7733 124.9220 215° Southwest  Level Estimated
Sun 11:36:00 PM 35.7051 124.8622 215° Southwest  Level Estimated
Sun 11:37:00 PM 35.6368 124.8025 215° Southwest  Level Estimated
Sun 11:38:00 PM 35.5685 124.7430 215° Southwest  Level Estimated
Sun 11:39:00 PM 35.5002 124.6835 215° Southwest  Level Estimated
Sun 11:40:00 PM 35.4319 124.6242 215° Southwest  Level Estimated
Sun 11:41:00 PM 35.3635 124.5649 215° Southwest  Level Estimated
Sun 11:42:00 PM 35.2951 124.5057 215° Southwest  Level Estimated
Sun 11:43:00 PM 35.2267 124.4467 215° Southwest  Level Estimated
Sun 11:44:00 PM 35.1582 124.3877 215° Southwest  Level Estimated
Sun 11:45:00 PM 35.0897 124.3289 215° Southwest  Level Estimated
Sun 11:46:00 PM 35.0212 124.2701 215° Southwest  Level Estimated
Sun 11:47:00 PM 34.9526 124.2114 215° Southwest  Level Estimated
Sun 11:48:00 PM 34.8841 124.1529 215° Southwest  Level Estimated
Sun 11:49:00 PM 34.8155 124.0944 215° Southwest  Level Estimated
Sun 11:50:00 PM 34.7468 124.0360 215° Southwest  Level Estimated
Sun 11:51:00 PM 34.6782 123.9778 215° Southwest  Level Estimated
Sun 11:52:00 PM 34.6095 123.9196 215° Southwest  Level Estimated
Sun 11:53:00 PM 34.5408 123.8615 215° Southwest  Level Estimated
Sun 11:54:00 PM 34.4720 123.8035 215° Southwest  Level Estimated
Sun 11:55:00 PM 34.4033 123.7456 215° Southwest  Level Estimated
Sun 11:56:00 PM 34.3345 123.6878 215° Southwest  Level Estimated
Sun 11:57:00 PM 34.2657 123.6301 215° Southwest  Level Estimated
Sun 11:58:00 PM 34.1968 123.5725 215° Southwest  Level Estimated
Sun 11:59:00 PM 34.1279 123.5150 215° Southwest  Level Estimated
Mon 12:00:00 AM 34.0590 123.4576 215° Southwest  Level Estimated
Mon 12:01:00 AM 33.9901 123.4003 215° Southwest  Level Estimated
Mon 12:02:00 AM 33.9211 123.3430 215° Southwest  Level Estimated
Mon 12:03:00 AM 33.8521 123.2859 215° Southwest  Level Estimated
Mon 12:04:00 AM 33.7831 123.2289 214° Southwest  Level Estimated
Mon 12:05:00 AM 33.7141 123.1719 214° Southwest  Level Estimated
Mon 12:06:00 AM 33.6450 123.1151 214° Southwest  Level Estimated
Mon 12:07:00 AM 33.5760 123.0583 214° Southwest  Level Estimated
Mon 12:08:00 AM 33.5068 123.0016 214° Southwest  Level Estimated
Mon 12:09:00 AM 33.4377 122.9450 214° Southwest  Level Estimated
Mon 12:10:00 AM 33.3685 122.8885 214° Southwest  Level Estimated
Mon 12:11:00 AM 33.2994 122.8321 214° Southwest  Level Estimated
Mon 12:12:00 AM 33.2301 122.7758 214° Southwest  Level Estimated
Mon 12:13:00 AM 33.1609 122.7196 214° Southwest  Level Estimated
Mon 12:14:00 AM 33.0916 122.6634 214° Southwest  Level Estimated
Mon 12:15:00 AM 33.0223 122.6074 214° Southwest  Level Estimated
Mon 12:16:00 AM 32.9530 122.5514 214° Southwest  Level Estimated
Mon 12:17:00 AM 32.8837 122.4955 214° Southwest  Level Estimated
Mon 12:18:00 AM 32.8143 122.4397 214° Southwest  Level Estimated
Mon 12:19:00 AM 32.7449 122.3840 214° Southwest  Level Estimated
Mon 12:20:00 AM 32.6755 122.3284 214° Southwest  Level Estimated
Mon 12:21:00 AM 32.6060 122.2729 214° Southwest  Level Estimated
Mon 12:22:00 AM 32.5366 122.2174 214° Southwest  Level Estimated
Mon 12:23:00 AM 32.4671 122.1620 214° Southwest  Level Estimated
Mon 12:24:00 AM 32.3976 122.1068 214° Southwest  Level Estimated
Mon 12:25:00 AM 32.3280 122.0516 214° Southwest  Level Estimated
Mon 12:26:00 AM 32.2585 121.9965 214° Southwest  Level Estimated
Mon 12:27:00 AM 32.1889 121.9415 214° Southwest  Level Estimated
Mon 12:28:00 AM 32.1193 121.8865 214° Southwest  Level Estimated
Mon 12:29:00 AM 32.0497 121.8317 214° Southwest  Level Estimated
Mon 12:30:00 AM 31.9800 121.7769 214° Southwest  Level Estimated
Mon 12:31:00 AM 31.9103 121.7222 214° Southwest  Level Estimated
Mon 12:32:00 AM 31.8406 121.6676 214° Southwest  Level Estimated
Mon 12:33:00 AM 31.7709 121.6131 214° Southwest  Level Estimated
Mon 12:34:00 AM 31.7012 121.5586 214° Southwest  Level Estimated
Mon 12:35:00 AM 31.6314 121.5043 214° Southwest  Level Estimated
Mon 12:36:00 AM 31.5616 121.4500 214° Southwest  Level Estimated
Mon 12:37:00 AM 31.4918 121.3958 214° Southwest  Level Estimated
Mon 12:38:00 AM 31.4219 121.3417 213° Southwest  Level Estimated
Mon 12:39:00 AM 31.3521 121.2877 213° Southwest  Level Estimated
Mon 12:40:00 AM 31.2822 121.2337 213° Southwest  Level Estimated
Mon 12:41:00 AM 31.2123 121.1799 213° Southwest  Level Estimated
Mon 12:42:00 AM 31.1423 121.1261 213° Southwest  Level Estimated
Mon 12:43:00 AM 31.0724 121.0724 213° Southwest  Level Estimated
Mon 12:44:00 AM 31.0024 121.0187 213° Southwest  Level Estimated
Mon 12:45:00 AM 30.9324 120.9652 213° Southwest  Level Estimated
Mon 12:46:00 AM 30.8624 120.9117 213° Southwest  Level Estimated
Mon 12:46:59 AM 30.6821 121.9729 213° Southwest 303 349 18,400  Level FlightAware ADS-B (ZSSS / SHA)
Mon 12:47:00 AM 30.7924 120.8583 213° Southwest  Level Estimated
Mon 12:49:00 AM 30.6285 121.7868 252° West  Level Estimated
Mon 12:50:00 AM 30.6018 121.6946 251° West  Level Estimated
Mon 12:51:00 AM 30.5751 121.6025 251° West  Level Estimated
Mon 12:52:00 AM 30.5482 121.5104 251° West  Level Estimated
Mon 12:53:00 AM 30.5214 121.4183 251° West  Level Estimated
Mon 12:54:00 AM 30.4944 121.3263 251° West  Level Estimated
Mon 12:55:00 AM 30.4674 121.2344 251° West  Level Estimated
Mon 12:56:00 AM 30.4404 121.1425 251° West  Level Estimated
Mon 12:57:00 AM 30.4132 121.0506 251° West  Level Estimated
Mon 12:58:00 AM 30.3860 120.9588 251° West  Level Estimated
Mon 12:59:00 AM 30.3588 120.8671 251° West  Level Estimated
Mon 01:00:00 AM 30.3315 120.7754 251° West  Level Estimated
Mon 01:01:00 AM 30.3041 120.6837 251° West  Level Estimated
Mon 01:02:00 AM 30.2766 120.5921 251° West  Level Estimated
Mon 01:03:00 AM 30.2491 120.5006 251° West  Level Estimated
Mon 01:04:00 AM 30.2283 120.4317 251° West  Level Estimated
Mon 01:05:00 AM 30.2283 120.4317 319° Northwest  Level Estimated
Mon 01:06:00 AM 30.2283 120.4317 319° Northwest  Level Estimated
Mon 01:07:00 AM 30.2283 120.4317 319° Northwest  Level Estimated
Mon 01:08:00 AM 30.2283 120.4317 319° Northwest  Level Estimated
Mon 01:09:00 AM 30.2283 120.4317 319° Northwest  Level Estimated
Mon 01:10:00 AM 30.2283 120.4317 319° Northwest  Level Estimated
Mon 01:11:00 AM 30.2283 120.4317 319° Northwest  Level Estimated

Login

Don't have an account? Register now (free) for customized features, flight alerts, and more!